createdAt,value
2018-10-07T00:01:52.552Z,99.90
2018-10-07T00:04:21.333Z,99.90
2018-10-07T00:06:50.091Z,99.90
2018-10-07T00:09:18.794Z,99.90
2018-10-07T00:11:47.576Z,99.90
2018-10-07T00:14:16.261Z,99.90
2018-10-07T00:16:44.974Z,99.90
2018-10-07T00:19:14.382Z,99.90
2018-10-07T00:21:44.081Z,99.90
2018-10-07T00:24:12.758Z,99.90
2018-10-07T00:26:41.497Z,99.90
2018-10-07T00:29:10.204Z,99.90
2018-10-07T00:31:44.051Z,99.90
2018-10-07T00:34:12.724Z,99.90
2018-10-07T00:36:41.429Z,99.90
2018-10-07T00:39:11.553Z,99.90
2018-10-07T00:41:40.318Z,99.90
2018-10-07T00:44:09.067Z,99.90
2018-10-07T00:46:37.827Z,99.90
2018-10-07T00:49:08.237Z,99.90
2018-10-07T00:51:37.030Z,99.90
2018-10-07T00:54:05.784Z,99.90
2018-10-07T00:56:34.507Z,99.90
2018-10-07T00:59:03.307Z,99.90
2018-10-07T01:01:31.967Z,99.90
2018-10-07T01:04:01.465Z,99.90
2018-10-07T01:06:30.223Z,99.90
2018-10-07T01:08:58.824Z,99.90
2018-10-07T01:11:27.498Z,99.90
2018-10-07T01:13:56.174Z,99.90
2018-10-07T01:16:24.789Z,99.90
2018-10-07T01:18:53.442Z,99.90
2018-10-07T01:21:22.170Z,99.90
2018-10-07T01:23:52.147Z,99.90
2018-10-07T01:26:22.119Z,99.90
2018-10-07T01:28:50.793Z,99.90
2018-10-07T01:31:19.468Z,99.90
2018-10-07T01:33:48.274Z,99.90
2018-10-07T01:36:17.973Z,99.90
2018-10-07T01:38:46.609Z,99.90
2018-10-07T01:41:15.514Z,99.90
2018-10-07T01:43:44.191Z,99.90
2018-10-07T01:46:12.831Z,99.90
2018-10-07T01:48:41.582Z,99.90
2018-10-07T01:51:10.318Z,99.90
2018-10-07T01:53:39.044Z,99.90
2018-10-07T01:56:07.888Z,99.90
2018-10-07T01:58:36.649Z,99.90
2018-10-07T02:01:05.426Z,99.90
2018-10-07T02:03:44.388Z,99.90
2018-10-07T02:06:13.138Z,99.90
2018-10-07T02:08:41.777Z,99.90
2018-10-07T02:11:10.493Z,99.90
2018-10-07T02:13:39.152Z,99.90
2018-10-07T02:16:07.917Z,99.90
2018-10-07T02:18:36.600Z,99.90
2018-10-07T02:21:05.217Z,99.90
2018-10-07T02:23:33.880Z,99.90
2018-10-07T02:26:02.557Z,99.90
2018-10-07T02:28:31.211Z,99.90
2018-10-07T02:30:59.909Z,99.90
2018-10-07T02:33:28.577Z,99.90
2018-10-07T02:35:57.246Z,99.90
2018-10-07T02:38:25.945Z,99.90
2018-10-07T02:40:54.911Z,99.90
2018-10-07T02:43:23.634Z,99.90
2018-10-07T02:45:52.273Z,99.90
2018-10-07T02:48:23.044Z,99.90
2018-10-07T02:50:51.962Z,99.90
2018-10-07T02:53:20.792Z,99.90
2018-10-07T02:55:49.674Z,99.90
2018-10-07T02:58:18.395Z,99.90
2018-10-07T03:00:47.115Z,99.90
2018-10-07T03:03:17.838Z,99.90
2018-10-07T03:05:47.600Z,99.90
2018-10-07T03:08:16.300Z,99.90
2018-10-07T03:10:45.006Z,99.90
2018-10-07T03:13:13.625Z,99.90
2018-10-07T03:15:42.244Z,99.90
2018-10-07T03:18:10.970Z,99.90
2018-10-07T03:20:39.581Z,99.90
2018-10-07T03:23:08.454Z,99.90
2018-10-07T03:25:37.181Z,99.90
2018-10-07T03:28:05.884Z,99.90
2018-10-07T03:30:34.619Z,99.90
2018-10-07T03:33:03.425Z,99.90
2018-10-07T03:35:32.170Z,99.90
2018-10-07T03:38:00.819Z,99.90
2018-10-07T03:40:29.503Z,99.90
2018-10-07T03:42:58.157Z,99.90
2018-10-07T03:45:26.802Z,99.90
2018-10-07T03:47:55.544Z,99.90
2018-10-07T03:50:24.244Z,99.90
2018-10-07T03:52:54.480Z,99.90
2018-10-07T03:55:23.196Z,99.90
2018-10-07T03:57:52.069Z,99.90
2018-10-07T04:00:20.782Z,99.90
2018-10-07T04:02:49.607Z,99.90
2018-10-07T04:05:18.318Z,99.90
2018-10-07T04:07:46.966Z,99.90
2018-10-07T04:10:15.760Z,99.90
2018-10-07T04:12:44.385Z,99.90
2018-10-07T04:15:13.474Z,99.90
2018-10-07T04:17:42.196Z,99.90
2018-10-07T04:20:10.909Z,99.90
2018-10-07T04:22:39.631Z,99.90
2018-10-07T04:25:08.345Z,99.90
2018-10-07T04:27:37.128Z,99.90
2018-10-07T04:30:06.967Z,99.90
2018-10-07T04:32:35.706Z,99.90
2018-10-07T04:35:04.426Z,99.90
2018-10-07T04:37:33.081Z,99.90
2018-10-07T04:40:01.917Z,99.90
2018-10-07T04:42:30.529Z,99.90
2018-10-07T04:45:01.448Z,99.90
2018-10-07T04:47:30.083Z,99.90
2018-10-07T04:49:58.835Z,99.90
2018-10-07T04:52:27.599Z,99.90
2018-10-07T04:54:57.517Z,99.90
2018-10-07T04:57:26.302Z,99.90
2018-10-07T04:59:55.009Z,99.90
2018-10-07T05:02:23.693Z,99.90
2018-10-07T05:04:52.438Z,99.90
2018-10-07T05:07:21.273Z,99.90
2018-10-07T05:09:50.028Z,99.90
2018-10-07T05:12:19.093Z,99.90
2018-10-07T05:14:47.902Z,99.90
2018-10-07T05:17:17.823Z,99.90
2018-10-07T05:19:46.607Z,99.90
2018-10-07T05:22:15.325Z,99.90
2018-10-07T05:24:45.865Z,99.90
2018-10-07T05:27:17.175Z,99.90
2018-10-07T05:29:48.391Z,99.90
2018-10-07T05:32:22.131Z,99.90
2018-10-07T05:34:54.069Z,99.90
2018-10-07T05:37:27.736Z,99.90
2018-10-07T05:40:13.541Z,99.90
2018-10-07T05:42:43.320Z,99.90
2018-10-07T05:45:14.164Z,99.90
2018-10-07T05:47:47.837Z,99.90
2018-10-07T05:50:19.127Z,99.90
2018-10-07T05:52:49.082Z,99.90
2018-10-07T05:55:20.809Z,99.90
2018-10-07T05:57:54.535Z,99.90
2018-10-07T06:00:24.146Z,99.90
2018-10-07T06:02:54.804Z,99.90
2018-10-07T06:05:23.559Z,99.90
2018-10-07T06:07:54.524Z,99.90
2018-10-07T06:10:23.446Z,99.90
2018-10-07T06:12:57.523Z,99.90
2018-10-07T06:15:34.420Z,99.90
2018-10-07T06:18:03.563Z,99.90
2018-10-07T06:20:33.537Z,99.90
2018-10-07T06:23:03.251Z,99.90
2018-10-07T06:25:40.876Z,99.90
2018-10-07T06:28:10.680Z,99.90
2018-10-07T06:30:39.575Z,99.90
2018-10-07T06:33:09.353Z,99.90
2018-10-07T06:35:38.460Z,99.90
2018-10-07T06:38:07.410Z,99.90
2018-10-07T06:40:41.682Z,99.90
2018-10-07T06:49:19.198Z,99.90
2018-10-07T06:51:49.166Z,99.90
2018-10-07T06:54:21.111Z,99.90
2018-10-07T06:56:54.038Z,99.90
2018-10-07T06:59:23.543Z,99.90
2018-10-07T07:01:53.139Z,99.90
2018-10-07T07:04:23.634Z,99.90
2018-10-07T07:06:53.883Z,99.90
2018-10-07T07:09:27.301Z,99.90
2018-10-07T07:11:56.208Z,99.90
2018-10-07T07:14:25.223Z,99.90
2018-10-07T07:16:54.153Z,99.90
2018-10-07T07:19:26.616Z,99.90
2018-10-07T07:21:59.634Z,99.90
2018-10-07T07:24:30.861Z,99.90
2018-10-07T07:27:00.672Z,99.90
2018-10-07T07:29:32.338Z,99.90
2018-10-07T07:32:01.740Z,99.90
2018-10-07T07:34:34.870Z,99.90
2018-10-07T07:37:06.018Z,99.90
2018-10-07T07:39:36.926Z,99.90
2018-10-07T07:42:09.198Z,99.90
2018-10-07T07:44:38.883Z,99.90
2018-10-07T07:47:08.291Z,99.90
2018-10-07T07:49:37.031Z,99.90
2018-10-07T07:52:06.114Z,99.90
2018-10-07T07:54:35.118Z,99.90
2018-10-07T07:57:03.949Z,99.90
2018-10-07T07:59:35.052Z,99.90
2018-10-07T08:02:03.791Z,99.90
2018-10-07T08:04:32.515Z,99.90
2018-10-07T08:07:01.217Z,99.90
2018-10-07T08:09:29.954Z,99.90
2018-10-07T08:11:58.938Z,99.90
2018-10-07T08:14:28.249Z,99.90
2018-10-07T08:16:56.997Z,99.90
2018-10-07T08:19:25.944Z,99.90
2018-10-07T08:21:54.657Z,99.90
2018-10-07T08:24:23.707Z,99.90
2018-10-07T08:26:52.493Z,99.90
2018-10-07T08:29:21.570Z,99.90
2018-10-07T08:31:50.489Z,99.90
2018-10-07T08:34:19.499Z,99.90
2018-10-07T08:36:49.328Z,99.90
2018-10-07T08:39:18.244Z,99.90
2018-10-07T08:41:47.216Z,99.90
2018-10-07T08:44:16.086Z,99.90
2018-10-07T08:46:45.333Z,99.90
2018-10-07T08:49:14.302Z,99.90
2018-10-07T08:51:44.695Z,99.90
2018-10-07T08:54:13.498Z,99.90
2018-10-07T08:56:43.911Z,99.90
2018-10-07T08:59:12.832Z,99.90
2018-10-07T09:01:41.659Z,99.90
2018-10-07T09:04:10.579Z,99.90
2018-10-07T09:06:39.550Z,99.90
2018-10-07T09:09:09.677Z,99.90
2018-10-07T09:11:38.525Z,99.90
2018-10-07T09:14:07.312Z,99.90
2018-10-07T09:16:36.284Z,99.90
2018-10-07T09:19:05.115Z,99.90
2018-10-07T09:21:33.933Z,99.90
2018-10-07T09:24:02.989Z,99.90
2018-10-07T09:26:33.033Z,99.90
2018-10-07T09:29:03.897Z,99.90
2018-10-07T09:31:32.952Z,99.90
2018-10-07T09:34:01.748Z,99.90
2018-10-07T09:36:30.612Z,99.90
2018-10-07T09:38:59.338Z,99.90
2018-10-07T09:41:28.190Z,99.90
2018-10-07T09:43:56.975Z,99.90
2018-10-07T09:46:26.289Z,99.90
2018-10-07T09:48:55.090Z,99.90
2018-10-07T09:51:24.191Z,99.90
2018-10-07T09:53:53.035Z,99.90
2018-10-07T09:56:22.063Z,99.90
2018-10-07T09:58:51.613Z,99.90
2018-10-07T10:01:20.543Z,99.90
2018-10-07T10:03:49.226Z,99.90
2018-10-07T10:06:17.969Z,99.90
2018-10-07T10:08:46.832Z,99.90
2018-10-07T10:11:16.147Z,99.90
2018-10-07T10:13:44.898Z,99.90
2018-10-07T10:16:17.238Z,99.90
2018-10-07T10:18:51.902Z,99.90
2018-10-07T10:21:30.122Z,99.90
2018-10-07T10:24:12.221Z,99.90
2018-10-07T10:26:48.355Z,99.90
2018-10-07T10:29:29.147Z,99.90
2018-10-07T10:32:11.934Z,99.90
2018-10-07T10:34:49.678Z,99.90
2018-10-07T10:37:23.681Z,99.90
2018-10-07T10:39:56.862Z,99.90
2018-10-07T10:43:09.447Z,99.90
2018-10-07T10:47:53.744Z,99.90
2018-10-07T10:50:29.005Z,99.90
2018-10-07T10:54:07.673Z,99.90
2018-10-07T10:56:42.145Z,99.90
2018-10-07T10:59:17.389Z,99.90
2018-10-07T11:03:59.826Z,99.90
2018-10-07T11:06:46.188Z,99.90
2018-10-07T11:09:28.932Z,99.90
2018-10-07T11:12:05.517Z,99.90
2018-10-07T11:14:43.159Z,99.90
2018-10-07T11:19:28.959Z,99.90
2018-10-07T11:22:09.192Z,99.90
2018-10-07T11:24:55.484Z,99.90
2018-10-07T11:29:12.661Z,99.90
2018-10-07T11:31:51.648Z,99.90
2018-10-07T11:34:34.012Z,99.90
2018-10-07T11:37:11.576Z,99.90
2018-10-07T11:39:55.307Z,99.90
2018-10-07T11:42:32.218Z,99.90
2018-10-07T11:45:17.518Z,99.90
2018-10-07T11:50:00.948Z,99.90
2018-10-07T11:54:48.254Z,99.90
2018-10-07T11:57:19.343Z,99.90
2018-10-07T11:59:57.627Z,99.90
2018-10-07T12:02:29.338Z,99.60
2018-10-07T12:05:07.467Z,99.30
2018-10-07T12:07:38.637Z,98.50
2018-10-07T12:10:10.645Z,97.60
2018-10-07T12:12:41.292Z,96.80
2018-10-07T12:15:10.514Z,96.90
2018-10-07T12:17:41.184Z,95.90
2018-10-07T12:20:11.030Z,94.90
2018-10-07T12:22:40.051Z,92.80
2018-10-07T12:25:08.962Z,91.20
2018-10-07T12:27:38.069Z,88.10
2018-10-07T12:30:07.522Z,88.70
2018-10-07T12:32:36.580Z,89.60
2018-10-07T12:35:09.786Z,85.20
2018-10-07T12:37:41.104Z,74.80
2018-10-07T12:40:10.842Z,64.10
2018-10-07T12:42:42.256Z,59.70
2018-10-07T12:45:11.791Z,60.10
2018-10-07T12:47:40.755Z,61.40
2018-10-07T12:50:09.975Z,63.80
2018-10-07T12:52:41.044Z,67.00
2018-10-07T12:55:10.858Z,64.40
2018-10-07T12:57:39.977Z,60.60
2018-10-07T13:00:08.927Z,58.80
2018-10-07T13:02:37.848Z,59.50
2018-10-07T13:05:07.236Z,61.60
2018-10-07T13:07:36.010Z,64.00
2018-10-07T13:10:05.952Z,65.90
2018-10-07T13:12:34.930Z,65.30
2018-10-07T13:15:05.444Z,67.00
2018-10-07T13:17:34.999Z,68.50
2018-10-07T13:20:03.850Z,69.20
2018-10-07T13:22:32.948Z,66.90
2018-10-07T13:25:02.181Z,61.10
2018-10-07T13:27:32.789Z,56.00
2018-10-07T13:30:03.377Z,50.00
2018-10-07T13:32:32.397Z,45.00
2018-10-07T13:35:02.333Z,41.60
2018-10-07T13:37:32.496Z,40.10
2018-10-07T13:40:02.015Z,38.80
2018-10-07T13:42:31.167Z,36.50
2018-10-07T13:47:54.522Z,35.70
2018-10-07T13:50:25.603Z,35.30
2018-10-07T13:52:57.251Z,34.60
2018-10-07T13:55:29.596Z,36.50
2018-10-07T13:58:00.837Z,38.50
2018-10-07T14:00:30.196Z,38.60
2018-10-07T14:02:59.021Z,39.10
2018-10-07T14:05:28.238Z,39.40
2018-10-07T14:07:59.203Z,40.30
2018-10-07T14:10:28.454Z,41.00
2018-10-07T14:12:57.281Z,40.00
2018-10-07T14:15:58.294Z,38.60
2018-10-07T14:18:31.486Z,37.00
2018-10-07T14:21:08.229Z,38.10
2018-10-07T14:23:37.649Z,36.40
2018-10-07T14:26:06.842Z,37.00
2018-10-07T14:28:35.623Z,39.20
2018-10-07T14:31:05.812Z,40.30
2018-10-07T14:33:34.648Z,41.70
2018-10-07T14:36:04.497Z,42.50
2018-10-07T14:38:33.876Z,43.40
2018-10-07T14:41:03.933Z,44.10
2018-10-07T14:43:33.449Z,43.20
2018-10-07T14:46:02.709Z,42.60
2018-10-07T14:48:34.651Z,42.90
2018-10-07T14:51:06.440Z,44.40
2018-10-07T14:53:37.568Z,45.50
2018-10-07T14:56:06.649Z,45.90
2018-10-07T14:58:36.263Z,45.90
2018-10-07T15:01:17.938Z,47.50
2018-10-07T15:03:51.373Z,47.30
2018-10-07T15:06:24.620Z,47.60
2018-10-07T15:08:55.569Z,48.90
2018-10-07T15:11:30.871Z,48.60
2018-10-07T15:14:03.609Z,47.40
2018-10-07T15:16:36.136Z,48.50
2018-10-07T15:19:17.577Z,49.10
2018-10-07T15:22:00.322Z,50.00
2018-10-07T15:24:35.589Z,50.90
2018-10-07T15:27:04.526Z,52.50
2018-10-07T15:29:33.574Z,53.00
2018-10-07T15:32:02.668Z,53.70
2018-10-07T15:34:31.785Z,53.50
2018-10-07T15:37:00.562Z,54.80
2018-10-07T15:39:29.650Z,55.40
2018-10-07T15:41:58.557Z,55.90
2018-10-07T15:44:29.044Z,56.20
2018-10-07T15:47:07.610Z,57.10
2018-10-07T15:49:36.579Z,57.80
2018-10-07T15:52:08.636Z,57.70
2018-10-07T15:54:37.448Z,58.00
2018-10-07T15:57:06.395Z,58.90
2018-10-07T15:59:36.887Z,60.00
2018-10-07T16:02:05.997Z,60.00
2018-10-07T16:04:35.059Z,60.50
2018-10-07T16:07:05.833Z,61.00
2018-10-07T16:09:35.873Z,61.40
2018-10-07T16:12:06.248Z,62.10
2018-10-07T16:14:35.051Z,63.10
2018-10-07T16:17:03.847Z,63.60
2018-10-07T16:19:33.744Z,64.60
2018-10-07T16:22:02.923Z,65.20
2018-10-07T16:24:38.736Z,66.70
2018-10-07T16:27:08.635Z,67.30
2018-10-07T16:29:37.921Z,69.00
2018-10-07T16:32:07.735Z,70.50
2018-10-07T16:34:36.470Z,72.10
2018-10-07T16:37:06.287Z,73.00
2018-10-07T16:39:35.550Z,73.50
2018-10-07T16:42:05.309Z,73.80
2018-10-07T16:44:34.285Z,74.00
2018-10-07T16:47:03.254Z,74.20
2018-10-07T16:49:32.003Z,74.80
2018-10-07T16:52:01.710Z,75.60
2018-10-07T16:54:31.541Z,76.40
2018-10-07T16:57:00.574Z,77.20
2018-10-07T16:59:29.700Z,77.60
2018-10-07T17:02:00.471Z,77.80
2018-10-07T17:04:30.070Z,77.50
2018-10-07T17:06:59.042Z,78.70
2018-10-07T17:09:30.026Z,79.30
2018-10-07T17:12:00.108Z,80.00
2018-10-07T17:14:31.533Z,80.80
2018-10-07T17:17:00.362Z,81.10
2018-10-07T17:19:29.736Z,81.30
2018-10-07T17:22:00.566Z,81.40
2018-10-07T17:24:33.169Z,81.50
2018-10-07T17:27:04.403Z,82.10
2018-10-07T17:29:35.448Z,83.00
2018-10-07T17:32:05.194Z,84.40
2018-10-07T17:34:34.883Z,84.60
2018-10-07T17:37:05.005Z,84.70
2018-10-07T17:39:34.072Z,85.80
2018-10-07T17:42:07.947Z,86.40
2018-10-07T17:44:36.816Z,86.90
2018-10-07T17:47:08.514Z,86.90
2018-10-07T17:49:37.570Z,86.90
2018-10-07T17:52:07.449Z,87.40
2018-10-07T17:54:36.579Z,88.60
2018-10-07T17:57:05.992Z,89.10
2018-10-07T17:59:34.916Z,89.30
2018-10-07T18:02:04.088Z,89.70
2018-10-07T18:04:33.861Z,89.80
2018-10-07T18:07:04.201Z,90.20
2018-10-07T18:09:33.121Z,90.50
2018-10-07T18:12:01.914Z,90.70
2018-10-07T18:14:34.186Z,90.80
2018-10-07T18:17:02.976Z,91.00
2018-10-07T18:19:32.297Z,91.10
2018-10-07T18:22:01.165Z,91.30
2018-10-07T18:24:30.655Z,91.60
2018-10-07T18:26:59.463Z,91.80
2018-10-07T18:29:28.631Z,92.10
2018-10-07T18:31:58.478Z,92.30
2018-10-07T18:34:27.526Z,92.40
2018-10-07T18:36:56.690Z,92.50
2018-10-07T18:39:25.440Z,92.80
2018-10-07T18:41:55.851Z,93.00
2018-10-07T18:44:24.721Z,93.20
2018-10-07T18:46:53.644Z,93.40
2018-10-07T18:49:22.406Z,93.70
2018-10-07T18:51:51.689Z,93.90
2018-10-07T18:54:20.428Z,93.90
2018-10-07T18:56:49.838Z,94.00
2018-10-07T18:59:18.562Z,94.00
2018-10-07T19:01:47.302Z,94.10
2018-10-07T19:04:16.038Z,94.30
2018-10-07T19:06:49.442Z,94.60
2018-10-07T19:09:18.200Z,94.90
2018-10-07T19:11:47.153Z,95.00
2018-10-07T19:14:16.034Z,95.20
2018-10-07T19:16:45.849Z,95.40
2018-10-07T19:19:14.931Z,95.50
2018-10-07T19:21:44.025Z,95.60
2018-10-07T19:24:12.739Z,95.80
2018-10-07T19:26:41.895Z,95.80
2018-10-07T19:29:13.009Z,96.00
2018-10-07T19:31:48.268Z,96.00
2018-10-07T19:34:17.196Z,96.10
2018-10-07T19:36:46.958Z,96.40
2018-10-07T19:39:16.443Z,96.60
2018-10-07T19:41:52.750Z,97.10
2018-10-07T19:44:23.406Z,97.10
2018-10-07T19:49:38.858Z,97.20
2018-10-07T19:52:07.777Z,97.40
2018-10-07T19:54:36.607Z,97.60
2018-10-07T19:57:05.429Z,97.60
2018-10-07T19:59:34.279Z,97.50
2018-10-07T20:02:06.966Z,97.70
2018-10-07T20:04:41.477Z,97.70
2018-10-07T20:07:13.503Z,98.00
2018-10-07T20:09:46.148Z,98.50
2018-10-07T20:12:17.194Z,98.60
2018-10-07T20:14:48.196Z,98.90
2018-10-07T20:17:19.094Z,98.90
2018-10-07T20:19:50.937Z,98.90
2018-10-07T20:22:19.682Z,99.20
2018-10-07T20:24:48.525Z,99.20
2018-10-07T20:27:22.654Z,99.20
2018-10-07T20:29:56.941Z,99.60
2018-10-07T20:32:27.156Z,99.30
2018-10-07T20:35:00.061Z,99.50
2018-10-07T20:37:32.163Z,99.40
2018-10-07T20:40:05.253Z,99.50
2018-10-07T20:42:35.113Z,99.40
2018-10-07T20:45:06.765Z,99.60
2018-10-07T20:47:38.064Z,99.60
2018-10-07T20:50:11.677Z,99.90
2018-10-07T20:52:46.585Z,99.90
2018-10-07T20:55:19.124Z,99.90
2018-10-07T20:57:51.262Z,99.90
2018-10-07T21:00:25.164Z,99.90
2018-10-07T21:02:55.348Z,99.90
2018-10-07T21:05:29.069Z,99.90
2018-10-07T21:08:02.131Z,99.90
2018-10-07T21:10:30.899Z,99.90
2018-10-07T21:13:04.248Z,99.90
2018-10-07T21:15:34.340Z,99.90
2018-10-07T21:18:07.867Z,99.90
2018-10-07T21:20:41.944Z,99.90
2018-10-07T21:23:14.640Z,99.90
2018-10-07T21:25:49.103Z,99.90
2018-10-07T21:28:17.830Z,99.90
2018-10-07T21:30:46.552Z,99.90
2018-10-07T21:33:15.675Z,99.90
2018-10-07T21:35:44.391Z,99.90
2018-10-07T21:38:13.094Z,99.90
2018-10-07T21:40:42.518Z,99.90
2018-10-07T21:43:11.678Z,99.90
2018-10-07T21:45:40.436Z,99.90
2018-10-07T21:48:09.838Z,99.90
2018-10-07T21:50:39.194Z,99.90
2018-10-07T21:53:08.646Z,99.90
2018-10-07T21:55:37.555Z,99.90
2018-10-07T21:58:06.822Z,99.90
2018-10-07T22:00:35.832Z,99.90
2018-10-07T22:03:04.570Z,99.90
2018-10-07T22:05:34.068Z,99.90
2018-10-07T22:08:02.983Z,99.90
2018-10-07T22:10:32.237Z,99.90
2018-10-07T22:13:01.132Z,99.90
2018-10-07T22:15:35.735Z,99.90
2018-10-07T22:18:04.551Z,99.90
2018-10-07T22:20:34.735Z,99.90
2018-10-07T22:23:03.542Z,99.90
2018-10-07T22:25:33.410Z,99.90
2018-10-07T22:28:03.496Z,99.90
2018-10-07T22:30:32.363Z,99.90
2018-10-07T22:33:01.418Z,99.90
2018-10-07T22:35:30.240Z,99.90
2018-10-07T22:37:59.342Z,99.90
2018-10-07T22:40:28.129Z,99.90
2018-10-07T22:42:56.837Z,99.90
2018-10-07T22:45:25.554Z,99.90
2018-10-07T22:47:54.793Z,99.90
2018-10-07T22:50:25.679Z,99.90
2018-10-07T22:52:56.275Z,99.90
2018-10-07T22:55:25.122Z,99.90
2018-10-07T22:57:55.512Z,99.90
2018-10-07T23:00:24.623Z,99.90
2018-10-07T23:03:00.967Z,99.90
2018-10-07T23:05:31.430Z,99.90
2018-10-07T23:08:00.159Z,99.90
2018-10-07T23:10:28.814Z,99.90
2018-10-07T23:12:57.691Z,99.90
2018-10-07T23:15:26.708Z,99.90
2018-10-07T23:17:55.876Z,99.90
2018-10-07T23:20:24.822Z,99.90
2018-10-07T23:22:54.028Z,99.90
2018-10-07T23:25:24.328Z,99.90
2018-10-07T23:27:53.985Z,99.90
2018-10-07T23:30:22.736Z,99.90
2018-10-07T23:32:51.501Z,99.90
2018-10-07T23:35:20.256Z,99.90
2018-10-07T23:37:49.750Z,99.90
2018-10-07T23:40:20.229Z,99.90
2018-10-07T23:42:55.092Z,99.90
2018-10-07T23:45:23.857Z,99.90
2018-10-07T23:47:54.503Z,99.90
2018-10-07T23:50:23.465Z,99.90
2018-10-07T23:52:54.079Z,99.90
2018-10-07T23:55:25.075Z,99.90
2018-10-07T23:57:55.450Z,99.90
